createdAt,value
2018-09-06T00:01:41.630Z,79.52
2018-09-06T00:04:14.878Z,79.14
2018-09-06T00:06:48.022Z,78.49
2018-09-06T00:09:21.165Z,78.78
2018-09-06T00:11:54.285Z,79.05
2018-09-06T00:14:27.454Z,79.92
2018-09-06T00:17:00.570Z,79.37
2018-09-06T00:19:33.774Z,78.94
2018-09-06T00:22:06.869Z,78.48
2018-09-06T00:24:40.077Z,78.24
2018-09-06T00:27:13.230Z,78.27
2018-09-06T00:29:46.394Z,78.75
2018-09-06T00:32:19.650Z,78.71
2018-09-06T00:34:52.814Z,78.56
2018-09-06T00:37:25.945Z,78.81
2018-09-06T00:39:59.122Z,79.11
2018-09-06T00:42:32.312Z,78.41
2018-09-06T00:45:05.538Z,78.13
2018-09-06T00:47:38.787Z,78.15
2018-09-06T00:50:18.924Z,78.92
2018-09-06T00:52:52.765Z,78.76
2018-09-06T00:55:25.893Z,79.75
2018-09-06T00:57:59.079Z,79.31
2018-09-06T01:00:32.284Z,78.36
2018-09-06T01:03:05.529Z,78.30
2018-09-06T01:05:38.743Z,78.84
2018-09-06T01:08:11.882Z,79.45
2018-09-06T01:10:44.992Z,79.71
2018-09-06T01:13:18.132Z,80.63
2018-09-06T01:15:51.252Z,80.35
2018-09-06T01:18:24.421Z,80.56
2018-09-06T01:20:57.591Z,80.67
2018-09-06T01:23:30.802Z,80.75
2018-09-06T01:26:03.973Z,81.18
2018-09-06T01:28:37.156Z,79.42
2018-09-06T01:31:10.250Z,79.01
2018-09-06T01:33:43.412Z,79.20
2018-09-06T01:36:22.369Z,79.27
2018-09-06T01:38:55.572Z,80.44
2018-09-06T01:41:28.709Z,80.86
2018-09-06T01:44:01.868Z,80.75
2018-09-06T01:49:22.261Z,79.30
2018-09-06T01:51:55.457Z,79.51
2018-09-06T01:54:28.657Z,80.39
2018-09-06T01:57:01.846Z,79.83
2018-09-06T01:59:39.225Z,80.55
2018-09-06T02:02:12.396Z,80.56
2018-09-06T02:04:45.594Z,80.49
2018-09-06T02:07:18.721Z,80.86
2018-09-06T02:09:51.878Z,81.04
2018-09-06T02:12:25.030Z,81.04
2018-09-06T02:14:58.205Z,80.90
2018-09-06T02:17:31.365Z,81.16
2018-09-06T02:20:04.639Z,82.04
2018-09-06T02:22:37.786Z,81.84
2018-09-06T02:25:11.090Z,80.98
2018-09-06T02:27:44.223Z,81.89
2018-09-06T02:30:17.505Z,81.60
2018-09-06T02:32:50.644Z,81.33
2018-09-06T02:35:23.831Z,80.93
2018-09-06T02:37:56.958Z,80.45
2018-09-06T02:40:35.846Z,81.00
2018-09-06T02:43:10.693Z,81.36
2018-09-06T02:45:44.334Z,81.67
2018-09-06T02:48:17.505Z,81.47
2018-09-06T02:50:56.258Z,81.99
2018-09-06T02:53:31.121Z,81.48
2018-09-06T02:56:04.273Z,81.90
2018-09-06T02:58:37.773Z,81.63
2018-09-06T03:01:10.949Z,82.15
2018-09-06T03:03:44.234Z,81.85
2018-09-06T03:06:17.479Z,81.51
2018-09-06T03:08:50.674Z,82.06
2018-09-06T03:11:28.095Z,82.68
2018-09-06T03:14:01.284Z,82.20
2018-09-06T03:16:34.437Z,82.16
2018-09-06T03:19:07.591Z,82.39
2018-09-06T03:21:40.825Z,82.19
2018-09-06T03:24:13.982Z,83.01
2018-09-06T03:26:47.192Z,82.47
2018-09-06T03:29:20.332Z,82.98
2018-09-06T03:31:53.515Z,83.27
2018-09-06T03:34:26.671Z,83.13
2018-09-06T03:36:59.819Z,82.88
2018-09-06T03:39:32.968Z,83.21
2018-09-06T03:42:06.074Z,83.32
2018-09-06T03:44:39.258Z,83.82
2018-09-06T03:47:12.449Z,83.79
2018-09-06T03:49:45.606Z,83.81
2018-09-06T03:52:18.751Z,83.24
2018-09-06T03:54:51.977Z,83.10
2018-09-06T03:57:25.118Z,82.81
2018-09-06T03:59:58.260Z,83.61
2018-09-06T04:02:31.412Z,83.63
2018-09-06T04:05:04.679Z,83.19
2018-09-06T04:07:37.866Z,82.98
2018-09-06T04:10:11.084Z,83.13
2018-09-06T04:12:44.224Z,82.87
2018-09-06T04:15:17.392Z,83.29
2018-09-06T04:17:50.609Z,83.57
2018-09-06T04:20:23.859Z,83.46
2018-09-06T04:22:57.114Z,83.53
2018-09-06T04:25:30.259Z,83.73
2018-09-06T04:28:03.459Z,83.81
2018-09-06T04:30:36.761Z,83.63
2018-09-06T04:33:09.889Z,83.72
2018-09-06T04:35:43.096Z,83.89
2018-09-06T04:38:16.242Z,83.64
2018-09-06T04:40:49.444Z,83.96
2018-09-06T04:43:22.588Z,83.86
2018-09-06T04:45:55.790Z,83.96
2018-09-06T04:48:28.954Z,83.91
2018-09-06T04:51:02.070Z,83.36
2018-09-06T04:53:35.391Z,83.42
2018-09-06T04:56:08.530Z,83.41
2018-09-06T04:58:41.957Z,83.05
2018-09-06T05:01:15.138Z,83.37
2018-09-06T05:03:48.298Z,83.52
2018-09-06T05:06:21.458Z,83.57
2018-09-06T05:08:54.662Z,82.59
2018-09-06T05:11:27.901Z,82.84
2018-09-06T05:14:01.050Z,82.11
2018-09-06T05:16:34.200Z,82.24
2018-09-06T05:19:07.408Z,82.57
2018-09-06T05:21:40.547Z,82.50
2018-09-06T05:24:13.687Z,81.69
2018-09-06T05:26:46.847Z,81.52
2018-09-06T05:29:20.011Z,81.62
2018-09-06T05:31:53.409Z,81.18
2018-09-06T05:34:26.564Z,81.64
2018-09-06T05:36:59.744Z,80.80
2018-09-06T05:39:33.070Z,80.12
2018-09-06T05:42:06.400Z,80.31
2018-09-06T05:44:39.596Z,79.58
2018-09-06T05:47:12.806Z,78.91
2018-09-06T05:49:46.034Z,78.58
2018-09-06T05:52:19.233Z,77.53
2018-09-06T05:54:52.406Z,75.73
2018-09-06T05:57:25.519Z,73.68
2018-09-06T05:59:58.768Z,73.12
2018-09-06T06:02:38.745Z,72.44
2018-09-06T06:05:12.064Z,72.13
2018-09-06T06:08:02.224Z,71.33
2018-09-06T06:10:35.444Z,70.69
2018-09-06T06:13:08.598Z,68.96
2018-09-06T06:15:41.801Z,68.54
2018-09-06T06:18:14.897Z,68.06
2018-09-06T06:20:48.078Z,68.67
2018-09-06T06:23:21.222Z,68.02
2018-09-06T06:25:54.348Z,67.62
2018-09-06T06:28:27.566Z,67.69
2018-09-06T06:31:00.764Z,67.29
2018-09-06T06:33:33.923Z,67.77
2018-09-06T06:36:07.184Z,68.27
2018-09-06T06:38:40.366Z,66.74
2018-09-06T06:41:13.496Z,66.74
2018-09-06T06:43:46.648Z,67.04
2018-09-06T06:46:19.767Z,67.04
2018-09-06T06:48:52.964Z,66.44
2018-09-06T06:51:26.206Z,67.17
2018-09-06T06:53:59.453Z,67.19
2018-09-06T06:56:32.596Z,67.26
2018-09-06T06:59:05.797Z,67.22
2018-09-06T07:01:38.948Z,66.70
2018-09-06T07:04:12.139Z,66.19
2018-09-06T07:06:45.273Z,64.42
2018-09-06T07:09:18.477Z,62.89
2018-09-06T07:11:51.664Z,61.88
2018-09-06T07:14:24.957Z,60.56
2018-09-06T07:16:58.098Z,59.40
2018-09-06T07:19:31.328Z,57.91
2018-09-06T07:22:04.579Z,57.84
2018-09-06T07:24:37.773Z,57.43
2018-09-06T07:27:10.999Z,58.36
2018-09-06T07:29:44.170Z,58.41
2018-09-06T07:32:17.376Z,57.32
2018-09-06T07:34:50.583Z,57.93
2018-09-06T07:37:23.731Z,57.17
2018-09-06T07:39:56.913Z,57.09
2018-09-06T07:42:30.138Z,56.52
2018-09-06T07:45:03.744Z,56.13
2018-09-06T07:47:36.870Z,55.47
2018-09-06T07:50:10.141Z,56.43
2018-09-06T07:52:43.265Z,57.08
2018-09-06T07:55:16.412Z,56.52
2018-09-06T07:57:49.651Z,55.02
2018-09-06T08:00:23.006Z,55.64
2018-09-06T08:02:56.250Z,55.69
2018-09-06T08:05:29.420Z,55.90
2018-09-06T08:08:02.628Z,54.59
2018-09-06T08:10:35.836Z,55.65
2018-09-06T08:13:09.030Z,53.57
2018-09-06T08:15:42.225Z,53.39
2018-09-06T08:18:15.397Z,52.70
2018-09-06T08:20:48.639Z,50.78
2018-09-06T08:23:21.873Z,50.25
2018-09-06T08:25:55.105Z,50.49
2018-09-06T08:28:28.321Z,49.93
2018-09-06T08:31:01.699Z,51.00
2018-09-06T08:33:34.955Z,49.86
2018-09-06T08:36:29.188Z,50.70
2018-09-06T08:39:02.581Z,48.74
2018-09-06T08:41:36.003Z,48.89
2018-09-06T08:44:09.410Z,49.59
2018-09-06T08:46:42.701Z,48.52
2018-09-06T08:49:15.904Z,49.01
2018-09-06T08:51:49.060Z,48.78
2018-09-06T08:54:22.261Z,47.31
2018-09-06T08:56:55.435Z,46.04
2018-09-06T08:59:28.703Z,45.61
2018-09-06T09:02:02.036Z,45.19
2018-09-06T09:04:35.757Z,44.51
2018-09-06T09:07:08.909Z,44.45
2018-09-06T09:09:42.147Z,44.58
2018-09-06T09:12:15.515Z,44.82
2018-09-06T09:14:48.671Z,44.35
2018-09-06T09:17:21.984Z,44.39
2018-09-06T09:19:55.167Z,42.67
2018-09-06T09:22:28.566Z,42.56
2018-09-06T09:25:01.658Z,42.56
2018-09-06T09:27:35.277Z,42.05
2018-09-06T09:30:08.739Z,42.06
2018-09-06T09:32:42.050Z,44.04
2018-09-06T09:35:15.201Z,42.71
2018-09-06T09:37:48.451Z,43.10
2018-09-06T09:40:21.664Z,40.97
2018-09-06T09:42:54.905Z,43.19
2018-09-06T09:45:28.117Z,42.65
2018-09-06T09:48:01.355Z,41.73
2018-09-06T09:53:07.276Z,43.29
2018-09-06T09:55:40.480Z,41.59
2018-09-06T09:58:13.709Z,41.13
2018-09-06T10:00:46.937Z,40.93
2018-09-06T10:03:25.618Z,41.86
2018-09-06T10:07:06.281Z,41.97
2018-09-06T10:09:39.544Z,40.67
2018-09-06T10:12:12.758Z,42.06
2018-09-06T10:14:45.953Z,40.25
2018-09-06T10:17:19.143Z,41.53
2018-09-06T10:19:52.313Z,42.21
2018-09-06T10:22:25.514Z,40.85
2018-09-06T10:24:58.716Z,41.93
2018-09-06T10:27:32.099Z,42.18
2018-09-06T10:30:05.341Z,41.76
2018-09-06T10:32:38.568Z,41.04
2018-09-06T10:35:11.789Z,41.03
2018-09-06T10:37:45.194Z,41.04
2018-09-06T10:40:18.441Z,40.61
2018-09-06T10:42:51.677Z,40.40
2018-09-06T10:45:24.896Z,40.51
2018-09-06T10:47:58.163Z,39.33
2018-09-06T10:50:31.274Z,39.63
2018-09-06T10:53:04.474Z,40.11
2018-09-06T10:55:37.674Z,39.57
2018-09-06T10:58:10.894Z,39.18
2018-09-06T11:00:44.146Z,39.29
2018-09-06T11:03:17.329Z,38.80
2018-09-06T11:05:50.550Z,41.23
2018-09-06T11:08:23.738Z,40.66
2018-09-06T11:10:56.905Z,41.48
2018-09-06T11:13:30.170Z,40.48
2018-09-06T11:16:03.389Z,40.36
2018-09-06T11:18:36.604Z,39.91
2018-09-06T11:21:09.979Z,39.78
2018-09-06T11:23:43.079Z,40.12
2018-09-06T11:26:16.349Z,40.43
2018-09-06T11:28:49.518Z,40.59
2018-09-06T11:31:22.715Z,41.08
2018-09-06T11:33:56.082Z,40.71
2018-09-06T11:36:29.333Z,39.85
2018-09-06T11:39:02.781Z,40.50
2018-09-06T11:41:36.341Z,39.49
2018-09-06T11:44:09.516Z,40.12
2018-09-06T11:46:42.712Z,39.61
2018-09-06T11:49:15.994Z,40.44
2018-09-06T11:51:49.211Z,39.23
2018-09-06T11:54:22.556Z,40.21
2018-09-06T11:56:55.790Z,39.31
2018-09-06T11:59:29.168Z,39.76
2018-09-06T12:02:02.455Z,39.89
2018-09-06T12:04:35.733Z,41.37
2018-09-06T12:07:09.040Z,41.53
2018-09-06T12:09:42.341Z,41.21
2018-09-06T12:12:15.561Z,38.84
2018-09-06T12:14:48.766Z,39.46
2018-09-06T12:17:21.959Z,41.34
2018-09-06T12:19:55.304Z,40.36
2018-09-06T12:22:28.545Z,41.08
2018-09-06T12:25:02.871Z,40.95
2018-09-06T12:27:37.120Z,40.76
2018-09-06T12:30:11.211Z,40.98
2018-09-06T12:32:44.455Z,40.25
2018-09-06T12:35:18.366Z,40.90
2018-09-06T12:37:52.617Z,40.98
2018-09-06T12:40:26.735Z,41.50
2018-09-06T12:43:00.527Z,42.35
2018-09-06T12:45:33.735Z,41.66
2018-09-06T12:48:07.017Z,42.21
2018-09-06T12:50:40.249Z,41.52
2018-09-06T12:53:13.500Z,42.88
2018-09-06T12:55:46.664Z,44.08
2018-09-06T12:58:19.945Z,43.09
2018-09-06T13:00:53.587Z,43.53
2018-09-06T13:03:26.991Z,44.93
2018-09-06T13:06:00.183Z,45.30
2018-09-06T13:08:33.429Z,44.39
2018-09-06T13:11:06.698Z,45.18
2018-09-06T13:13:40.011Z,42.64
2018-09-06T13:16:13.202Z,43.07
2018-09-06T13:18:46.532Z,42.98
2018-09-06T13:21:19.601Z,43.56
2018-09-06T13:23:52.787Z,42.48
2018-09-06T13:26:26.001Z,42.98
2018-09-06T13:28:59.181Z,43.05
2018-09-06T13:31:32.404Z,41.38
2018-09-06T13:34:05.633Z,41.61
2018-09-06T13:36:38.854Z,41.69
2018-09-06T13:39:12.332Z,41.76
2018-09-06T13:41:45.541Z,43.24
2018-09-06T13:44:21.571Z,44.70
2018-09-06T13:46:54.740Z,45.29
2018-09-06T13:49:28.038Z,46.93
2018-09-06T13:52:01.298Z,45.70
2018-09-06T13:54:34.489Z,46.87
2018-09-06T13:57:08.168Z,47.56
2018-09-06T13:59:41.432Z,47.64
2018-09-06T14:02:14.571Z,47.31
2018-09-06T14:04:47.906Z,46.47
2018-09-06T14:07:21.156Z,45.55
2018-09-06T14:09:54.372Z,46.28
2018-09-06T14:12:27.586Z,46.14
2018-09-06T14:15:00.804Z,45.76
2018-09-06T14:17:34.024Z,45.80
2018-09-06T14:20:07.222Z,46.97
2018-09-06T14:22:40.433Z,47.71
2018-09-06T14:25:13.650Z,49.39
2018-09-06T14:27:46.850Z,49.59
2018-09-06T14:30:27.099Z,53.17
2018-09-06T14:33:00.284Z,53.85
2018-09-06T14:35:33.426Z,54.54
2018-09-06T14:38:06.645Z,54.14
2018-09-06T14:40:39.786Z,55.01
2018-09-06T14:43:13.024Z,55.70
2018-09-06T14:45:46.201Z,55.72
2018-09-06T14:48:19.402Z,55.08
2018-09-06T14:50:52.727Z,55.33
2018-09-06T14:53:25.959Z,55.36
2018-09-06T14:55:59.150Z,54.72
2018-09-06T14:58:32.361Z,56.26
2018-09-06T15:01:05.637Z,55.54
2018-09-06T15:03:38.904Z,54.88
2018-09-06T15:06:18.831Z,54.90
2018-09-06T15:08:52.028Z,55.70
2018-09-06T15:11:25.207Z,55.45
2018-09-06T15:13:58.457Z,55.50
2018-09-06T15:16:31.737Z,56.47
2018-09-06T15:19:05.389Z,56.81
2018-09-06T15:21:38.569Z,57.48
2018-09-06T15:24:11.815Z,59.20
2018-09-06T15:26:45.039Z,60.50
2018-09-06T15:29:18.299Z,60.72
2018-09-06T15:31:51.435Z,61.03
2018-09-06T15:34:25.133Z,61.00
2018-09-06T15:36:58.357Z,60.76
2018-09-06T15:39:31.598Z,61.14
2018-09-06T15:42:04.849Z,61.80
2018-09-06T15:44:38.089Z,61.60
2018-09-06T15:47:11.403Z,62.04
2018-09-06T15:49:44.780Z,61.55
2018-09-06T15:52:17.861Z,62.67
2018-09-06T15:54:51.098Z,61.71
2018-09-06T15:57:24.473Z,62.19
2018-09-06T15:59:57.723Z,61.63
2018-09-06T16:02:30.922Z,62.73
2018-09-06T16:05:04.165Z,62.80
2018-09-06T16:07:37.412Z,61.71
2018-09-06T16:10:10.669Z,62.54
2018-09-06T16:12:43.919Z,63.30
2018-09-06T16:15:17.251Z,62.68
2018-09-06T16:17:50.465Z,63.54
2018-09-06T16:20:23.677Z,63.49
2018-09-06T16:22:57.009Z,63.31
2018-09-06T16:25:30.258Z,63.02
2018-09-06T16:28:03.467Z,63.63
2018-09-06T16:30:36.841Z,64.13
2018-09-06T16:33:10.058Z,65.05
2018-09-06T16:35:43.374Z,65.12
2018-09-06T16:38:16.634Z,64.13
2018-09-06T16:40:49.906Z,64.44
2018-09-06T16:43:23.224Z,64.81
2018-09-06T16:45:56.619Z,64.22
2018-09-06T16:48:29.987Z,65.01
2018-09-06T16:51:03.478Z,65.81
2018-09-06T16:53:36.696Z,66.30
2018-09-06T16:56:09.949Z,66.76
2018-09-06T16:58:43.227Z,66.90
2018-09-06T17:01:16.550Z,67.28
2018-09-06T17:03:51.119Z,67.25
2018-09-06T17:06:27.311Z,67.52
2018-09-06T17:09:00.546Z,67.12
2018-09-06T17:11:33.845Z,67.07
2018-09-06T17:14:07.160Z,67.66
2018-09-06T17:16:40.473Z,67.55
2018-09-06T17:19:13.773Z,66.66
2018-09-06T17:21:47.027Z,67.14
2018-09-06T17:24:20.286Z,67.80
2018-09-06T17:26:53.830Z,65.66
2018-09-06T17:29:27.133Z,65.81
2018-09-06T17:32:00.426Z,66.69
2018-09-06T17:34:33.670Z,67.64
2018-09-06T17:37:06.828Z,68.21
2018-09-06T17:39:40.107Z,67.51
2018-09-06T17:42:13.284Z,67.04
2018-09-06T17:44:46.567Z,66.57
2018-09-06T17:47:19.746Z,66.67
2018-09-06T17:49:53.019Z,65.67
2018-09-06T17:52:26.293Z,68.27
2018-09-06T17:54:59.520Z,70.39
2018-09-06T17:57:32.779Z,71.88
2018-09-06T18:00:06.797Z,73.46
2018-09-06T18:02:40.131Z,74.99
2018-09-06T18:05:13.438Z,75.04
2018-09-06T18:07:46.690Z,77.73
2018-09-06T18:12:42.816Z,77.97
2018-09-06T18:15:16.042Z,79.17
2018-09-06T18:17:49.398Z,78.93
2018-09-06T18:20:22.650Z,78.98
2018-09-06T18:22:55.920Z,78.35
2018-09-06T18:25:29.388Z,78.68
2018-09-06T18:28:02.759Z,77.87
2018-09-06T18:30:36.162Z,78.91
2018-09-06T18:33:09.419Z,77.93
2018-09-06T18:35:42.797Z,77.59
2018-09-06T18:38:16.080Z,77.74
2018-09-06T18:40:49.366Z,79.11
2018-09-06T18:43:22.544Z,79.45
2018-09-06T18:45:55.829Z,78.29
2018-09-06T18:48:29.057Z,78.20
2018-09-06T18:51:02.380Z,76.50
2018-09-06T18:53:35.662Z,78.72
2018-09-06T18:56:09.121Z,78.17
2018-09-06T18:58:42.393Z,78.90
2018-09-06T19:01:14.745Z,77.55
2018-09-06T19:03:58.474Z,76.41
2018-09-06T19:06:30.906Z,77.79
2018-09-06T19:09:04.584Z,77.46
2018-09-06T19:11:36.957Z,78.39
2018-09-06T19:14:09.293Z,77.29
2018-09-06T19:16:41.672Z,76.92
2018-09-06T19:19:14.014Z,77.81
2018-09-06T19:21:46.459Z,78.73
2018-09-06T19:24:18.809Z,79.48
2018-09-06T19:26:51.169Z,80.38
2018-09-06T19:29:23.524Z,80.75
2018-09-06T19:31:55.977Z,80.24
2018-09-06T19:34:28.218Z,80.07
2018-09-06T19:37:00.555Z,81.37
2018-09-06T19:39:32.918Z,80.95
2018-09-06T19:42:05.314Z,79.39
2018-09-06T19:44:37.654Z,78.71
2018-09-06T19:47:09.958Z,80.29
2018-09-06T19:49:42.425Z,81.16
2018-09-06T19:52:14.793Z,82.23
2018-09-06T19:54:47.181Z,81.53
2018-09-06T19:57:19.582Z,80.71
2018-09-06T19:59:52.016Z,81.21
2018-09-06T20:02:24.378Z,81.24
2018-09-06T20:04:57.226Z,81.28
2018-09-06T20:07:29.604Z,82.58
2018-09-06T20:10:02.035Z,80.93
2018-09-06T20:12:34.540Z,82.08
2018-09-06T20:15:07.110Z,83.04
2018-09-06T20:17:39.468Z,83.44
2018-09-06T20:20:11.809Z,84.24
2018-09-06T20:22:44.134Z,84.92
2018-09-06T20:25:16.435Z,85.75
2018-09-06T20:27:48.821Z,85.18
2018-09-06T20:30:21.144Z,85.80
2018-09-06T20:32:53.480Z,86.38
2018-09-06T20:35:25.848Z,87.20
2018-09-06T20:37:58.237Z,86.91
2018-09-06T20:40:30.562Z,86.47
2018-09-06T20:43:02.971Z,86.13
2018-09-06T20:45:35.287Z,86.50
2018-09-06T20:48:14.605Z,87.36
2018-09-06T20:50:47.017Z,86.84
2018-09-06T20:53:19.419Z,85.72
2018-09-06T20:55:51.794Z,86.92
2018-09-06T20:58:24.090Z,86.93
2018-09-06T21:00:56.486Z,87.27
2018-09-06T21:03:28.894Z,87.28
2018-09-06T21:06:01.341Z,87.99
2018-09-06T21:08:33.666Z,87.54
2018-09-06T21:11:06.083Z,86.94
2018-09-06T21:13:38.497Z,88.08
2018-09-06T21:16:10.889Z,88.07
2018-09-06T21:18:43.252Z,87.56
2018-09-06T21:21:15.710Z,88.26
2018-09-06T21:23:48.132Z,87.76
2018-09-06T21:26:20.552Z,88.46
2018-09-06T21:28:52.941Z,88.38
2018-09-06T21:31:25.282Z,87.85
2018-09-06T21:33:57.600Z,87.05
2018-09-06T21:36:29.957Z,86.85
2018-09-06T21:39:02.387Z,86.99
2018-09-06T21:41:34.720Z,87.87
2018-09-06T21:44:07.366Z,88.19
2018-09-06T21:46:40.062Z,88.11
2018-09-06T21:49:12.384Z,87.35
2018-09-06T21:51:44.709Z,87.02
2018-09-06T21:54:17.009Z,87.56
2018-09-06T21:56:49.408Z,87.63
2018-09-06T21:59:21.713Z,88.17
2018-09-06T22:01:54.021Z,87.99
2018-09-06T22:04:26.344Z,88.50
2018-09-06T22:06:58.648Z,87.71
2018-09-06T22:09:30.956Z,87.01
2018-09-06T22:12:03.334Z,87.59
2018-09-06T22:14:35.625Z,86.50
2018-09-06T22:17:07.923Z,87.48
2018-09-06T22:19:40.296Z,88.07
2018-09-06T22:22:12.599Z,88.03
2018-09-06T22:24:44.956Z,88.71
2018-09-06T22:27:17.246Z,88.25
2018-09-06T22:29:49.669Z,87.30
2018-09-06T22:32:21.937Z,87.25
2018-09-06T22:34:54.304Z,87.84
2018-09-06T22:37:26.681Z,87.32
2018-09-06T22:39:59.050Z,87.61
2018-09-06T22:42:31.355Z,87.16
2018-09-06T22:45:03.709Z,86.78
2018-09-06T22:47:36.061Z,88.14
2018-09-06T22:50:08.436Z,87.52
2018-09-06T22:52:40.700Z,87.93
2018-09-06T22:55:13.085Z,87.86
2018-09-06T22:57:45.337Z,87.51
2018-09-06T23:00:20.248Z,87.93
2018-09-06T23:02:58.184Z,87.78
2018-09-06T23:05:30.901Z,87.19
2018-09-06T23:08:03.552Z,87.76
2018-09-06T23:10:35.841Z,87.33
2018-09-06T23:13:08.187Z,87.23
2018-09-06T23:15:40.425Z,87.67
2018-09-06T23:18:12.709Z,87.12
2018-09-06T23:20:44.980Z,87.98
2018-09-06T23:23:17.329Z,87.63
2018-09-06T23:25:49.632Z,87.70
2018-09-06T23:28:21.932Z,87.67
2018-09-06T23:30:54.183Z,87.91
2018-09-06T23:33:26.493Z,87.00
2018-09-06T23:35:58.805Z,87.10
2018-09-06T23:38:31.124Z,86.61
2018-09-06T23:41:03.413Z,87.08
2018-09-06T23:43:35.742Z,86.27
2018-09-06T23:46:08.043Z,86.01
2018-09-06T23:48:40.312Z,87.02
2018-09-06T23:51:12.538Z,86.57
2018-09-06T23:53:44.813Z,86.34
2018-09-06T23:56:17.114Z,86.61
2018-09-06T23:58:49.392Z,86.68
